Check out our new PWSWeather beta!
PWSweather.com
Personal Weather Stations
Station Observations
OBERT
Bodensee Hinterland, OberteuringenDE

Bodensee HinterlandOberteuringenDE

Lat: 47.714675, Lon: 9.44447

Elevation: 1427

Station Type: Wunder Weather Station

High Low Average
Temperature 59.7°F15.4°C 42.9°F6.1°C 53.0°F11.7°C
Dew Point 48.3°F9.1°C 34.4°F1.3°C 42.0°F5.6°C
Winds 14.7 mph 23.7 kmh Calm Calm 6.0 mph N9.7 kmh N
Wind Gusts 23.4 mph37.7 kmh -- 11.0 mph17.7 kmh
Humidity 94% 53% 66%
Pressure 30.34 in1027.4 mb 30.15 in1021.0 mb -
Precipitation 0.00 in0.0 mm - -
Hour Temp Dew Point Humidity Winds Wind Gusts Pressure Precip Precip Rate Daily Precip Total
12:00 AM 49.6°F9.8°C 38.9°F3.8°C 66% 3.2 mph 5.1 kmh 9.0 mph14.5 kmh 30.34 in1027.4 mb 0.00 in0.0 mm 0.00 in0.0 mm 0.00 in0.0 mm
12:30 AM 49.1°F9.5°C 38.3°F3.5°C 66% 4.1 mph N6.6 kmh N 5.9 mph9.5 kmh 30.34 in1027.4 mb 0.00 in0.0 mm 0.00 in0.0 mm 0.00 in0.0 mm
12:42 AM 48.9°F9.4°C 38.5°F3.6°C 67% 2.5 mph 4.0 kmh 5.6 mph9.0 kmh 30.34 in1027.4 mb 0.00 in0.0 mm 0.00 in0.0 mm 0.00 in0.0 mm
01:12 AM 49.4°F9.7°C 36.5°F2.5°C 60% 3.8 mph 6.1 kmh 7.1 mph11.4 kmh 30.34 in1027.4 mb 0.00 in0.0 mm 0.00 in0.0 mm 0.00 in0.0 mm
01:42 AM 50.0°F10.0°C 35.0°F1.7°C 56% 5.7 mph N9.2 kmh N 8.7 mph14.0 kmh 30.32 in1026.8 mb 0.00 in0.0 mm 0.00 in0.0 mm 0.00 in0.0 mm
02:12 AM 49.6°F9.8°C 36.6°F2.6°C 60% 5.3 mph 8.5 kmh 9.3 mph15.0 kmh 30.33 in1027.1 mb 0.00 in0.0 mm 0.00 in0.0 mm 0.00 in0.0 mm
02:42 AM 49.4°F9.7°C 34.4°F1.3°C 56% 6.2 mph 10.0 kmh 11.5 mph18.5 kmh 30.33 in1027.1 mb 0.00 in0.0 mm 0.00 in0.0 mm 0.00 in0.0 mm
03:12 AM 48.7°F9.3°C 35.0°F1.7°C 59% 3.2 mph N5.1 kmh N 8.1 mph13.0 kmh 30.31 in1026.4 mb 0.00 in0.0 mm 0.00 in0.0 mm 0.00 in0.0 mm
03:42 AM 48.3°F9.1°C 34.6°F1.4°C 58% Calm Calm 5.9 mph9.5 kmh 30.31 in1026.4 mb 0.00 in0.0 mm 0.00 in0.0 mm 0.00 in0.0 mm
04:12 AM 47.6°F8.7°C 34.5°F1.4°C 60% Calm Calm -- 30.31 in1026.4 mb 0.00 in0.0 mm 0.00 in0.0 mm 0.00 in0.0 mm
04:42 AM 43.3°F6.3°C 38.5°F3.6°C 83% Calm Calm -- 30.32 in1026.8 mb 0.00 in0.0 mm 0.00 in0.0 mm 0.00 in0.0 mm
05:12 AM 42.9°F6.1°C 39.3°F4.1°C 86% Calm Calm -- 30.33 in1027.1 mb 0.00 in0.0 mm 0.00 in0.0 mm 0.00 in0.0 mm
05:42 AM 43.8°F6.6°C 40.2°F4.6°C 86% 2.6 mph 4.2 kmh 4.6 mph7.4 kmh 30.31 in1026.4 mb 0.00 in0.0 mm 0.00 in0.0 mm 0.00 in0.0 mm
06:12 AM 44.6°F7.0°C 40.1°F4.5°C 84% 1.7 mph 2.7 kmh 3.7 mph6.0 kmh 30.31 in1026.4 mb 0.00 in0.0 mm 0.00 in0.0 mm 0.00 in0.0 mm
06:42 AM 43.1°F6.2°C 41.7°F5.4°C 94% Calm Calm -- 30.31 in1026.4 mb 0.00 in0.0 mm 0.00 in0.0 mm 0.00 in0.0 mm
07:12 AM 43.5°F6.4°C 41.4°F5.2°C 92% 1.3 mph 2.1 kmh 3.1 mph5.0 kmh 30.30 in1026.1 mb 0.00 in0.0 mm 0.00 in0.0 mm 0.00 in0.0 mm
07:42 AM 44.7°F7.1°C 40.8°F4.9°C 86% 4.1 mph 6.6 kmh 5.0 mph8.0 kmh 30.29 in1025.7 mb 0.00 in0.0 mm 0.00 in0.0 mm 0.00 in0.0 mm
08:12 AM 45.8°F7.7°C 41.0°F5.0°C 83% 1.1 mph N1.8 kmh N 3.1 mph5.0 kmh 30.29 in1025.7 mb 0.00 in0.0 mm 0.00 in0.0 mm 0.00 in0.0 mm
08:42 AM 46.7°F8.2°C 40.3°F4.6°C 78% 3.0 mph 4.8 kmh 0.9 mph1.4 kmh 30.28 in1025.4 mb 0.00 in0.0 mm 0.00 in0.0 mm 0.00 in0.0 mm
09:12 AM 47.6°F8.7°C 40.6°F4.8°C 76% 3.8 mph 6.1 kmh 5.6 mph9.0 kmh 30.27 in1025.1 mb 0.00 in0.0 mm 0.00 in0.0 mm 0.00 in0.0 mm
09:42 AM 48.5°F9.2°C 41.5°F5.3°C 76% 0.8 mph N1.3 kmh N 3.1 mph5.0 kmh 30.28 in1025.4 mb 0.00 in0.0 mm 0.00 in0.0 mm 0.00 in0.0 mm
10:12 AM 49.1°F9.5°C 41.7°F5.4°C 75% 1.5 mph 2.4 kmh 4.0 mph6.4 kmh 30.26 in1024.7 mb 0.00 in0.0 mm 0.00 in0.0 mm 0.00 in0.0 mm
10:42 AM 50.7°F10.4°C 40.7°F4.8°C 68% 0.9 mph N1.4 kmh N 2.8 mph4.5 kmh 30.26 in1024.7 mb 0.00 in0.0 mm 0.00 in0.0 mm 0.00 in0.0 mm
11:12 AM 51.0°F10.6°C 41.5°F5.3°C 69% 0.6 mph N1.0 kmh N 3.4 mph5.5 kmh 30.24 in1024.0 mb 0.00 in0.0 mm 0.00 in0.0 mm 0.00 in0.0 mm
11:42 AM 53.9°F12.2°C 39.7°F4.3°C 58% 4.1 mph 6.6 kmh 8.1 mph13.0 kmh 30.24 in1024.0 mb 0.00 in0.0 mm 0.00 in0.0 mm 0.00 in0.0 mm
12:12 PM 55.4°F13.0°C 39.7°F4.3°C 55% 6.9 mph 11.1 kmh 11.2 mph18.0 kmh 30.23 in1023.7 mb 0.00 in0.0 mm 0.00 in0.0 mm 0.00 in0.0 mm
12:42 PM 56.3°F13.5°C 40.3°F4.6°C 55% 5.1 mph N8.2 kmh N 7.1 mph11.4 kmh 30.21 in1023.0 mb 0.00 in0.0 mm 0.00 in0.0 mm 0.00 in0.0 mm
01:12 PM 57.3°F14.1°C 41.0°F5.0°C 54% 6.4 mph 10.3 kmh 9.0 mph14.5 kmh 30.20 in1022.7 mb 0.00 in0.0 mm 0.00 in0.0 mm 0.00 in0.0 mm
01:42 PM 58.1°F14.5°C 41.5°F5.3°C 53% 6.9 mph 11.1 kmh 12.5 mph20.1 kmh 30.18 in1022.0 mb 0.00 in0.0 mm 0.00 in0.0 mm 0.00 in0.0 mm
02:12 PM 59.3°F15.2°C 42.4°F5.8°C 53% 5.8 mph 9.3 kmh 13.1 mph21.1 kmh 30.18 in1022.0 mb 0.00 in0.0 mm 0.00 in0.0 mm 0.00 in0.0 mm
02:42 PM 59.5°F15.3°C 43.6°F6.4°C 55% 5.6 mph N9.0 kmh N 13.7 mph22.0 kmh 30.17 in1021.7 mb 0.00 in0.0 mm 0.00 in0.0 mm 0.00 in0.0 mm
03:12 PM 59.3°F15.2°C 44.2°F6.8°C 57% 8.9 mph 14.3 kmh 12.1 mph19.5 kmh 30.16 in1021.3 mb 0.00 in0.0 mm 0.00 in0.0 mm 0.00 in0.0 mm
03:42 PM 59.0°F15.0°C 44.9°F7.2°C 59% 7.1 mph 11.4 kmh 12.1 mph19.5 kmh 30.15 in1021.0 mb 0.00 in0.0 mm 0.00 in0.0 mm 0.00 in0.0 mm
04:12 PM 59.0°F15.0°C 46.0°F7.8°C 62% 6.9 mph N11.1 kmh N 13.7 mph22.0 kmh 30.15 in1021.0 mb 0.00 in0.0 mm 0.00 in0.0 mm 0.00 in0.0 mm
04:42 PM 59.7°F15.4°C 47.1°F8.4°C 63% 10.6 mph 17.1 kmh 18.4 mph29.6 kmh 30.15 in1021.0 mb 0.00 in0.0 mm 0.00 in0.0 mm 0.00 in0.0 mm
05:12 PM 59.7°F15.4°C 46.3°F7.9°C 61% 10.1 mph 16.3 kmh 18.4 mph29.6 kmh 30.15 in1021.0 mb 0.00 in0.0 mm 0.00 in0.0 mm 0.00 in0.0 mm
05:42 PM 59.1°F15.1°C 44.8°F7.1°C 59% 10.0 mph N16.1 kmh N 18.4 mph29.6 kmh 30.15 in1021.0 mb 0.00 in0.0 mm 0.00 in0.0 mm 0.00 in0.0 mm
06:12 PM 59.1°F15.1°C 44.4°F6.9°C 58% 11.7 mph N18.8 kmh N 19.0 mph30.6 kmh 30.16 in1021.3 mb 0.00 in0.0 mm 0.00 in0.0 mm 0.00 in0.0 mm
06:42 PM 59.7°F15.4°C 45.0°F7.2°C 58% 11.3 mph 18.2 kmh 19.0 mph30.6 kmh 30.16 in1021.3 mb 0.00 in0.0 mm 0.00 in0.0 mm 0.00 in0.0 mm
06:54 PM 59.7°F15.4°C 45.3°F7.4°C 58% 13.1 mph 21.1 kmh 17.8 mph28.6 kmh 30.15 in1021.0 mb 0.00 in0.0 mm 0.00 in0.0 mm 0.00 in0.0 mm
07:24 PM 59.5°F15.3°C 45.5°F7.5°C 59% 13.5 mph 21.7 kmh 23.4 mph37.7 kmh 30.15 in1021.0 mb 0.00 in0.0 mm 0.00 in0.0 mm 0.00 in0.0 mm
07:54 PM 59.0°F15.0°C 45.9°F7.7°C 61% 10.4 mph N16.7 kmh N 20.6 mph33.2 kmh 30.17 in1021.7 mb 0.00 in0.0 mm 0.00 in0.0 mm 0.00 in0.0 mm
08:24 PM 58.4°F14.7°C 46.3°F7.9°C 64% 11.5 mph 18.5 kmh 17.8 mph28.6 kmh 30.18 in1022.0 mb 0.00 in0.0 mm 0.00 in0.0 mm 0.00 in0.0 mm
08:54 PM 59.0°F15.0°C 46.7°F8.2°C 63% 14.2 mph N22.9 kmh N 22.1 mph35.6 kmh 30.17 in1021.7 mb 0.00 in0.0 mm 0.00 in0.0 mm 0.00 in0.0 mm
09:24 PM 57.7°F14.3°C 46.6°F8.1°C 66% 9.2 mph N14.8 kmh N 13.4 mph21.6 kmh 30.17 in1021.7 mb 0.00 in0.0 mm 0.00 in0.0 mm 0.00 in0.0 mm
09:54 PM 58.1°F14.5°C 47.3°F8.5°C 67% 8.5 mph 13.7 kmh 18.1 mph29.1 kmh 30.18 in1022.0 mb 0.00 in0.0 mm 0.00 in0.0 mm 0.00 in0.0 mm
10:24 PM 57.9°F14.4°C 47.6°F8.7°C 68% 12.5 mph 20.1 kmh 21.2 mph34.1 kmh 30.18 in1022.0 mb 0.00 in0.0 mm 0.00 in0.0 mm 0.00 in0.0 mm
10:54 PM 58.1°F14.5°C 48.3°F9.1°C 69% 12.4 mph N20.0 kmh N 21.2 mph34.1 kmh 30.19 in1022.4 mb 0.00 in0.0 mm 0.00 in0.0 mm 0.00 in0.0 mm
11:24 PM 57.3°F14.1°C 48.3°F9.1°C 71% 10.6 mph 17.1 kmh 18.7 mph30.1 kmh 30.19 in1022.4 mb 0.00 in0.0 mm 0.00 in0.0 mm 0.00 in0.0 mm
11:54 PM 57.3°F14.1°C 48.2°F9.0°C 71% 14.7 mph N23.7 kmh N 22.1 mph35.6 kmh 30.20 in1022.7 mb 0.00 in0.0 mm 0.00 in0.0 mm 0.00 in0.0 mm